sensor_id;sensor_type;location;lat;lon;timestamp;temperature;humidity
51908;DHT22;39320;53.214;6.556;2023-02-04T00:01:31;8.60;99.90
51908;DHT22;39320;53.214;6.556;2023-02-04T00:03:58;8.10;99.90
51908;DHT22;39320;53.214;6.556;2023-02-04T00:06:28;8.10;99.90
51908;DHT22;39320;53.214;6.556;2023-02-04T00:08:54;8.20;99.90
51908;DHT22;39320;53.214;6.556;2023-02-04T00:11:56;8.10;99.90
51908;DHT22;39320;53.214;6.556;2023-02-04T00:18:26;8.10;99.90
51908;DHT22;39320;53.214;6.556;2023-02-04T00:21:01;8.10;99.90
51908;DHT22;39320;53.214;6.556;2023-02-04T00:23:33;7.10;99.90
51908;DHT22;39320;53.214;6.556;2023-02-04T00:29:03;8.20;99.90
51908;DHT22;39320;53.214;6.556;2023-02-04T00:31:37;8.20;99.90
51908;DHT22;39320;53.214;6.556;2023-02-04T00:34:25;8.00;99.90
51908;DHT22;39320;53.214;6.556;2023-02-04T00:37:15;8.20;99.90
51908;DHT22;39320;53.214;6.556;2023-02-04T00:57:28;8.70;99.90
51908;DHT22;39320;53.214;6.556;2023-02-04T01:00:28;7.60;99.90
51908;DHT22;39320;53.214;6.556;2023-02-04T01:07:15;8.10;99.90
51908;DHT22;39320;53.214;6.556;2023-02-04T01:10:44;8.00;99.90
51908;DHT22;39320;53.214;6.556;2023-02-04T01:18:28;8.00;99.90
51908;DHT22;39320;53.214;6.556;2023-02-04T01:27:58;8.10;99.90
51908;DHT22;39320;53.214;6.556;2023-02-04T01:30:55;8.10;99.90
51908;DHT22;39320;53.214;6.556;2023-02-04T01:34:34;8.10;99.90
51908;DHT22;39320;53.214;6.556;2023-02-04T01:37:41;7.40;99.90
51908;DHT22;39320;53.214;6.556;2023-02-04T01:47:01;8.20;99.90
51908;DHT22;39320;53.214;6.556;2023-02-04T01:53:55;8.20;99.90
51908;DHT22;39320;53.214;6.556;2023-02-04T01:57:29;8.20;99.90
51908;DHT22;39320;53.214;6.556;2023-02-04T02:00:35;8.20;99.90
51908;DHT22;39320;53.214;6.556;2023-02-04T02:04:04;9.40;99.90
51908;DHT22;39320;53.214;6.556;2023-02-04T02:07:21;8.10;99.90
51908;DHT22;39320;53.214;6.556;2023-02-04T02:25:21;7.20;99.90
51908;DHT22;39320;53.214;6.556;2023-02-04T02:36:31;8.20;99.90
51908;DHT22;39320;53.214;6.556;2023-02-04T02:39:47;8.10;99.90
51908;DHT22;39320;53.214;6.556;2023-02-04T03:08:35;8.30;99.90
51908;DHT22;39320;53.214;6.556;2023-02-04T03:25:29;9.20;99.90
51908;DHT22;39320;53.214;6.556;2023-02-04T03:27:59;8.70;99.90
51908;DHT22;39320;53.214;6.556;2023-02-04T03:30:37;8.10;99.90
51908;DHT22;39320;53.214;6.556;2023-02-04T03:33:18;8.20;99.90
51908;DHT22;39320;53.214;6.556;2023-02-04T03:35:44;8.20;99.90
51908;DHT22;39320;53.214;6.556;2023-02-04T03:38:20;8.10;99.90
51908;DHT22;39320;53.214;6.556;2023-02-04T03:40:51;8.20;99.90
51908;DHT22;39320;53.214;6.556;2023-02-04T03:43:30;8.10;99.90
51908;DHT22;39320;53.214;6.556;2023-02-04T03:46:01;7.90;99.90
51908;DHT22;39320;53.214;6.556;2023-02-04T03:48:41;7.70;99.90
51908;DHT22;39320;53.214;6.556;2023-02-04T03:51:20;8.00;99.90
51908;DHT22;39320;53.214;6.556;2023-02-04T03:53:46;8.30;99.90
51908;DHT22;39320;53.214;6.556;2023-02-04T03:56:12;8.00;99.90
51908;DHT22;39320;53.214;6.556;2023-02-04T03:58:39;8.70;99.90
51908;DHT22;39320;53.214;6.556;2023-02-04T04:01:13;8.00;99.90
51908;DHT22;39320;53.214;6.556;2023-02-04T04:03:48;8.00;99.90
51908;DHT22;39320;53.214;6.556;2023-02-04T04:10:00;8.40;99.90
51908;DHT22;39320;53.214;6.556;2023-02-04T04:12:45;7.90;99.90
51908;DHT22;39320;53.214;6.556;2023-02-04T04:15:36;7.80;99.90
51908;DHT22;39320;53.214;6.556;2023-02-04T04:18:30;7.90;99.90
51908;DHT22;39320;53.214;6.556;2023-02-04T04:21:14;7.90;99.90
51908;DHT22;39320;53.214;6.556;2023-02-04T04:24:00;7.90;99.90
51908;DHT22;39320;53.214;6.556;2023-02-04T04:26:35;7.80;99.90
51908;DHT22;39320;53.214;6.556;2023-02-04T04:29:24;7.80;99.90
51908;DHT22;39320;53.214;6.556;2023-02-04T04:31:52;7.80;99.90
51908;DHT22;39320;53.214;6.556;2023-02-04T04:34:18;7.80;99.90
51908;DHT22;39320;53.214;6.556;2023-02-04T04:36:46;7.90;99.90
51908;DHT22;39320;53.214;6.556;2023-02-04T04:39:30;7.80;99.90
51908;DHT22;39320;53.214;6.556;2023-02-04T04:42:02;7.80;99.90
51908;DHT22;39320;53.214;6.556;2023-02-04T04:44:41;7.80;99.90
51908;DHT22;39320;53.214;6.556;2023-02-04T04:47:25;7.80;99.90
51908;DHT22;39320;53.214;6.556;2023-02-04T04:49:53;7.80;99.90
51908;DHT22;39320;53.214;6.556;2023-02-04T04:52:31;7.80;99.90
51908;DHT22;39320;53.214;6.556;2023-02-04T04:55:03;7.80;99.90
51908;DHT22;39320;53.214;6.556;2023-02-04T04:57:44;7.80;99.90
51908;DHT22;39320;53.214;6.556;2023-02-04T05:00:24;7.20;99.90
51908;DHT22;39320;53.214;6.556;2023-02-04T05:02:54;7.80;99.90
51908;DHT22;39320;53.214;6.556;2023-02-04T05:05:25;7.80;99.90
51908;DHT22;39320;53.214;6.556;2023-02-04T05:08:07;7.80;99.90
51908;DHT22;39320;53.214;6.556;2023-02-04T05:10:42;8.50;99.90
51908;DHT22;39320;53.214;6.556;2023-02-04T05:13:57;7.90;99.90
51908;DHT22;39320;53.214;6.556;2023-02-04T05:16:56;8.40;99.90
51908;DHT22;39320;53.214;6.556;2023-02-04T05:20:04;7.80;99.90
51908;DHT22;39320;53.214;6.556;2023-02-04T05:22:53;7.00;99.90
51908;DHT22;39320;53.214;6.556;2023-02-04T05:26:05;7.90;99.90
51908;DHT22;39320;53.214;6.556;2023-02-04T05:28:51;7.70;99.90
51908;DHT22;39320;53.214;6.556;2023-02-04T05:34:41;7.80;99.90
51908;DHT22;39320;53.214;6.556;2023-02-04T05:37:08;7.70;99.90
51908;DHT22;39320;53.214;6.556;2023-02-04T05:40:03;7.60;99.90
51908;DHT22;39320;53.214;6.556;2023-02-04T05:42:29;7.70;99.90
51908;DHT22;39320;53.214;6.556;2023-02-04T05:45:33;7.70;99.90
51908;DHT22;39320;53.214;6.556;2023-02-04T05:48:27;7.00;99.90
51908;DHT22;39320;53.214;6.556;2023-02-04T05:51:21;7.70;99.90
51908;DHT22;39320;53.214;6.556;2023-02-04T05:53:51;7.70;99.90
51908;DHT22;39320;53.214;6.556;2023-02-04T05:56:27;7.70;99.90
51908;DHT22;39320;53.214;6.556;2023-02-04T05:59:05;7.80;99.90
51908;DHT22;39320;53.214;6.556;2023-02-04T06:04:36;7.70;99.90
51908;DHT22;39320;53.214;6.556;2023-02-04T06:07:17;7.70;99.90
51908;DHT22;39320;53.214;6.556;2023-02-04T06:09:52;6.70;99.90
51908;DHT22;39320;53.214;6.556;2023-02-04T06:12:58;7.70;99.90
51908;DHT22;39320;53.214;6.556;2023-02-04T06:16:02;7.00;99.90
51908;DHT22;39320;53.214;6.556;2023-02-04T06:18:36;7.70;99.90
51908;DHT22;39320;53.214;6.556;2023-02-04T06:21:21;7.70;99.90
51908;DHT22;39320;53.214;6.556;2023-02-04T06:59:48;7.50;99.90
51908;DHT22;39320;53.214;6.556;2023-02-04T07:10:06;8.50;99.90
51908;DHT22;39320;53.214;6.556;2023-02-04T07:20:29;7.40;99.90
51908;DHT22;39320;53.214;6.556;2023-02-04T07:45:14;7.50;99.90
51908;DHT22;39320;53.214;6.556;2023-02-04T07:48:20;7.40;99.90
51908;DHT22;39320;53.214;6.556;2023-02-04T07:51:25;7.20;99.90
51908;DHT22;39320;53.214;6.556;2023-02-04T07:54:36;7.20;99.90
51908;DHT22;39320;53.214;6.556;2023-02-04T08:06:33;7.30;99.90
51908;DHT22;39320;53.214;6.556;2023-02-04T08:13:18;6.60;99.90
51908;DHT22;39320;53.214;6.556;2023-02-04T08:16:24;7.30;99.90
51908;DHT22;39320;53.214;6.556;2023-02-04T08:19:52;7.00;99.90
51908;DHT22;39320;53.214;6.556;2023-02-04T08:22:49;7.10;99.90
51908;DHT22;39320;53.214;6.556;2023-02-04T08:33:08;8.40;99.90
51908;DHT22;39320;53.214;6.556;2023-02-04T08:36:26;7.20;99.90
51908;DHT22;39320;53.214;6.556;2023-02-04T08:39:28;7.10;99.90
51908;DHT22;39320;53.214;6.556;2023-02-04T08:42:27;7.10;99.90
51908;DHT22;39320;53.214;6.556;2023-02-04T08:45:35;6.20;99.90
51908;DHT22;39320;53.214;6.556;2023-02-04T08:48:24;7.10;99.90
51908;DHT22;39320;53.214;6.556;2023-02-04T08:50:59;7.00;99.90
51908;DHT22;39320;53.214;6.556;2023-02-04T08:53:40;7.10;99.90
51908;DHT22;39320;53.214;6.556;2023-02-04T08:56:06;7.20;99.90
51908;DHT22;39320;53.214;6.556;2023-02-04T08:58:51;7.10;99.90
51908;DHT22;39320;53.214;6.556;2023-02-04T09:01:22;7.50;99.90
51908;DHT22;39320;53.214;6.556;2023-02-04T09:03:49;7.10;99.90
51908;DHT22;39320;53.214;6.556;2023-02-04T09:06:17;7.10;99.90
51908;DHT22;39320;53.214;6.556;2023-02-04T09:08:44;7.50;99.90
51908;DHT22;39320;53.214;6.556;2023-02-04T09:11:12;6.90;99.90
51908;DHT22;39320;53.214;6.556;2023-02-04T09:13:39;7.10;99.90
51908;DHT22;39320;53.214;6.556;2023-02-04T09:16:11;7.10;99.90
51908;DHT22;39320;53.214;6.556;2023-02-04T09:18:42;7.20;99.90
51908;DHT22;39320;53.214;6.556;2023-02-04T09:21:09;6.40;99.90
51908;DHT22;39320;53.214;6.556;2023-02-04T09:23:35;7.20;99.90
51908;DHT22;39320;53.214;6.556;2023-02-04T09:26:16;6.30;99.90
51908;DHT22;39320;53.214;6.556;2023-02-04T09:29:04;7.20;99.90
51908;DHT22;39320;53.214;6.556;2023-02-04T09:31:30;7.10;99.90
51908;DHT22;39320;53.214;6.556;2023-02-04T09:33:56;7.50;99.90
51908;DHT22;39320;53.214;6.556;2023-02-04T09:36:22;7.50;99.90
51908;DHT22;39320;53.214;6.556;2023-02-04T09:38:47;7.80;99.90
51908;DHT22;39320;53.214;6.556;2023-02-04T09:41:13;7.20;99.90
51908;DHT22;39320;53.214;6.556;2023-02-04T09:43:43;7.40;99.90
51908;DHT22;39320;53.214;6.556;2023-02-04T09:46:21;7.20;99.90
51908;DHT22;39320;53.214;6.556;2023-02-04T09:48:49;7.20;99.90
51908;DHT22;39320;53.214;6.556;2023-02-04T09:51:21;7.20;99.90
51908;DHT22;39320;53.214;6.556;2023-02-04T09:53:52;7.10;99.90
51908;DHT22;39320;53.214;6.556;2023-02-04T09:56:19;7.30;99.90
51908;DHT22;39320;53.214;6.556;2023-02-04T09:58:45;7.30;99.90
51908;DHT22;39320;53.214;6.556;2023-02-04T10:01:16;7.40;99.90
51908;DHT22;39320;53.214;6.556;2023-02-04T10:03:44;7.40;99.90
51908;DHT22;39320;53.214;6.556;2023-02-04T10:06:22;7.30;99.90
51908;DHT22;39320;53.214;6.556;2023-02-04T10:08:49;7.40;99.90
51908;DHT22;39320;53.214;6.556;2023-02-04T10:11:17;7.40;99.90
51908;DHT22;39320;53.214;6.556;2023-02-04T10:13:47;7.40;99.90
51908;DHT22;39320;53.214;6.556;2023-02-04T10:16:34;7.40;99.90
51908;DHT22;39320;53.214;6.556;2023-02-04T10:19:06;7.40;99.90
51908;DHT22;39320;53.214;6.556;2023-02-04T10:21:34;7.40;99.90
51908;DHT22;39320;53.214;6.556;2023-02-04T10:24:09;7.40;99.90
51908;DHT22;39320;53.214;6.556;2023-02-04T10:26:37;7.20;99.90
51908;DHT22;39320;53.214;6.556;2023-02-04T10:29:17;7.40;99.90
51908;DHT22;39320;53.214;6.556;2023-02-04T10:31:48;7.40;99.90
51908;DHT22;39320;53.214;6.556;2023-02-04T10:34:19;7.50;99.90
51908;DHT22;39320;53.214;6.556;2023-02-04T10:36:47;7.40;99.90
51908;DHT22;39320;53.214;6.556;2023-02-04T10:39:19;7.40;99.90
51908;DHT22;39320;53.214;6.556;2023-02-04T10:44:17;7.50;99.90
51908;DHT22;39320;53.214;6.556;2023-02-04T10:46:43;7.80;99.90
51908;DHT22;39320;53.214;6.556;2023-02-04T10:49:21;8.00;99.90
51908;DHT22;39320;53.214;6.556;2023-02-04T10:51:50;7.60;99.90
51908;DHT22;39320;53.214;6.556;2023-02-04T10:54:19;7.60;99.90
51908;DHT22;39320;53.214;6.556;2023-02-04T10:59:26;7.60;99.90
51908;DHT22;39320;53.214;6.556;2023-02-04T11:01:57;7.60;99.90
51908;DHT22;39320;53.214;6.556;2023-02-04T11:04:25;7.30;99.90
51908;DHT22;39320;53.214;6.556;2023-02-04T11:06:53;7.70;99.90
51908;DHT22;39320;53.214;6.556;2023-02-04T11:09:20;7.70;99.90
51908;DHT22;39320;53.214;6.556;2023-02-04T11:11:48;7.80;99.90
51908;DHT22;39320;53.214;6.556;2023-02-04T11:14:27;7.80;99.90
51908;DHT22;39320;53.214;6.556;2023-02-04T11:16:54;7.90;99.90
51908;DHT22;39320;53.214;6.556;2023-02-04T11:19:36;7.80;99.90
51908;DHT22;39320;53.214;6.556;2023-02-04T11:22:22;7.80;99.90
51908;DHT22;39320;53.214;6.556;2023-02-04T11:24:50;7.80;99.90
51908;DHT22;39320;53.214;6.556;2023-02-04T11:27:23;7.80;99.90
51908;DHT22;39320;53.214;6.556;2023-02-04T11:29:49;7.80;99.90
51908;DHT22;39320;53.214;6.556;2023-02-04T11:32:35;7.80;99.90
51908;DHT22;39320;53.214;6.556;2023-02-04T11:35:19;7.90;99.90
51908;DHT22;39320;53.214;6.556;2023-02-04T11:37:46;8.00;99.90
51908;DHT22;39320;53.214;6.556;2023-02-04T11:40:33;8.10;99.90
51908;DHT22;39320;53.214;6.556;2023-02-04T11:43:07;8.10;99.90
51908;DHT22;39320;53.214;6.556;2023-02-04T11:45:35;8.20;99.90
51908;DHT22;39320;53.214;6.556;2023-02-04T11:48:10;8.30;99.90
51908;DHT22;39320;53.214;6.556;2023-02-04T11:50:37;8.40;99.90
51908;DHT22;39320;53.214;6.556;2023-02-04T11:53:03;8.50;99.90
51908;DHT22;39320;53.214;6.556;2023-02-04T11:55:30;8.60;99.90
51908;DHT22;39320;53.214;6.556;2023-02-04T11:57:57;8.70;99.90
51908;DHT22;39320;53.214;6.556;2023-02-04T12:00:32;8.70;99.90
51908;DHT22;39320;53.214;6.556;2023-02-04T12:03:01;8.80;99.90
51908;DHT22;39320;53.214;6.556;2023-02-04T12:05:41;8.80;99.90
51908;DHT22;39320;53.214;6.556;2023-02-04T12:08:31;8.90;99.90
51908;DHT22;39320;53.214;6.556;2023-02-04T12:11:05;9.00;99.90
51908;DHT22;39320;53.214;6.556;2023-02-04T12:13:33;9.10;99.90
51908;DHT22;39320;53.214;6.556;2023-02-04T12:16:05;9.20;99.90
51908;DHT22;39320;53.214;6.556;2023-02-04T12:18:33;9.20;99.90
51908;DHT22;39320;53.214;6.556;2023-02-04T12:21:00;9.20;99.90
51908;DHT22;39320;53.214;6.556;2023-02-04T12:23:29;9.30;99.90
51908;DHT22;39320;53.214;6.556;2023-02-04T12:25:55;9.30;99.90
51908;DHT22;39320;53.214;6.556;2023-02-04T12:28:22;9.30;99.90
51908;DHT22;39320;53.214;6.556;2023-02-04T12:30:48;9.40;99.90
51908;DHT22;39320;53.214;6.556;2023-02-04T12:33:13;9.40;99.90
51908;DHT22;39320;53.214;6.556;2023-02-04T12:35:39;9.50;99.90
51908;DHT22;39320;53.214;6.556;2023-02-04T12:38:05;9.50;99.90
51908;DHT22;39320;53.214;6.556;2023-02-04T12:40:31;9.60;99.90
51908;DHT22;39320;53.214;6.556;2023-02-04T12:42:57;9.70;99.90
51908;DHT22;39320;53.214;6.556;2023-02-04T12:45:23;9.70;99.90
51908;DHT22;39320;53.214;6.556;2023-02-04T12:47:49;9.70;99.90
51908;DHT22;39320;53.214;6.556;2023-02-04T12:50:16;9.80;99.90
51908;DHT22;39320;53.214;6.556;2023-02-04T12:52:50;9.90;99.90
51908;DHT22;39320;53.214;6.556;2023-02-04T12:55:19;9.90;99.90
51908;DHT22;39320;53.214;6.556;2023-02-04T12:57:45;9.90;99.90
51908;DHT22;39320;53.214;6.556;2023-02-04T13:00:13;10.00;99.90
51908;DHT22;39320;53.214;6.556;2023-02-04T13:02:39;10.10;99.90
51908;DHT22;39320;53.214;6.556;2023-02-04T13:05:06;10.10;99.90
51908;DHT22;39320;53.214;6.556;2023-02-04T13:07:32;10.20;99.90
51908;DHT22;39320;53.214;6.556;2023-02-04T13:09:58;10.20;99.90
51908;DHT22;39320;53.214;6.556;2023-02-04T13:12:24;10.30;99.90
51908;DHT22;39320;53.214;6.556;2023-02-04T13:14:50;10.40;99.90
51908;DHT22;39320;53.214;6.556;2023-02-04T13:17:16;10.40;99.90
51908;DHT22;39320;53.214;6.556;2023-02-04T13:19:42;10.40;99.90
51908;DHT22;39320;53.214;6.556;2023-02-04T13:22:08;10.40;99.90
51908;DHT22;39320;53.214;6.556;2023-02-04T13:24:34;10.60;99.90
51908;DHT22;39320;53.214;6.556;2023-02-04T13:27:00;10.60;99.90
51908;DHT22;39320;53.214;6.556;2023-02-04T13:29:25;10.70;99.90
51908;DHT22;39320;53.214;6.556;2023-02-04T13:31:51;10.80;99.90
51908;DHT22;39320;53.214;6.556;2023-02-04T13:34:17;10.80;99.90
51908;DHT22;39320;53.214;6.556;2023-02-04T13:36:43;10.90;99.90
51908;DHT22;39320;53.214;6.556;2023-02-04T13:39:09;10.90;99.90
51908;DHT22;39320;53.214;6.556;2023-02-04T13:41:35;11.00;99.90
51908;DHT22;39320;53.214;6.556;2023-02-04T13:44:02;11.00;99.90
51908;DHT22;39320;53.214;6.556;2023-02-04T13:46:28;11.00;99.90
51908;DHT22;39320;53.214;6.556;2023-02-04T13:48:54;11.00;99.90
51908;DHT22;39320;53.214;6.556;2023-02-04T13:51:19;11.00;99.90
51908;DHT22;39320;53.214;6.556;2023-02-04T13:53:45;11.00;99.90
51908;DHT22;39320;53.214;6.556;2023-02-04T13:56:11;11.00;99.90
51908;DHT22;39320;53.214;6.556;2023-02-04T13:58:37;11.00;99.90
51908;DHT22;39320;53.214;6.556;2023-02-04T14:01:03;11.00;99.90
51908;DHT22;39320;53.214;6.556;2023-02-04T14:03:29;11.00;99.90
51908;DHT22;39320;53.214;6.556;2023-02-04T14:05:55;11.00;99.90
51908;DHT22;39320;53.214;6.556;2023-02-04T14:08:22;11.00;99.90
51908;DHT22;39320;53.214;6.556;2023-02-04T14:10:48;11.00;99.90
51908;DHT22;39320;53.214;6.556;2023-02-04T14:13:14;10.90;99.90
51908;DHT22;39320;53.214;6.556;2023-02-04T14:15:43;10.90;99.90
51908;DHT22;39320;53.214;6.556;2023-02-04T14:18:09;11.00;99.90
51908;DHT22;39320;53.214;6.556;2023-02-04T14:20:35;11.10;99.90
51908;DHT22;39320;53.214;6.556;2023-02-04T14:23:02;11.20;99.90
51908;DHT22;39320;53.214;6.556;2023-02-04T14:25:31;11.30;99.90
51908;DHT22;39320;53.214;6.556;2023-02-04T14:27:57;11.20;99.90
51908;DHT22;39320;53.214;6.556;2023-02-04T14:30:25;11.20;99.90
51908;DHT22;39320;53.214;6.556;2023-02-04T14:32:51;11.10;99.90
51908;DHT22;39320;53.214;6.556;2023-02-04T14:35:17;11.10;99.90
51908;DHT22;39320;53.214;6.556;2023-02-04T14:37:43;11.10;99.90
51908;DHT22;39320;53.214;6.556;2023-02-04T14:40:11;11.00;99.90
51908;DHT22;39320;53.214;6.556;2023-02-04T14:42:37;10.90;99.90
51908;DHT22;39320;53.214;6.556;2023-02-04T14:45:04;10.90;99.90
51908;DHT22;39320;53.214;6.556;2023-02-04T14:47:31;10.80;99.90
51908;DHT22;39320;53.214;6.556;2023-02-04T14:49:57;10.70;99.90
51908;DHT22;39320;53.214;6.556;2023-02-04T14:52:23;10.80;99.90
51908;DHT22;39320;53.214;6.556;2023-02-04T14:54:49;10.70;99.90
51908;DHT22;39320;53.214;6.556;2023-02-04T14:57:14;10.60;99.90
51908;DHT22;39320;53.214;6.556;2023-02-04T14:59:40;10.60;99.90
51908;DHT22;39320;53.214;6.556;2023-02-04T15:02:06;10.50;99.90
51908;DHT22;39320;53.214;6.556;2023-02-04T15:04:33;10.40;99.90
51908;DHT22;39320;53.214;6.556;2023-02-04T15:06:59;10.40;99.90
51908;DHT22;39320;53.214;6.556;2023-02-04T15:09:24;10.40;99.90
51908;DHT22;39320;53.214;6.556;2023-02-04T15:11:50;10.30;99.90
51908;DHT22;39320;53.214;6.556;2023-02-04T15:14:17;10.30;99.90
51908;DHT22;39320;53.214;6.556;2023-02-04T15:16:42;10.20;99.90
51908;DHT22;39320;53.214;6.556;2023-02-04T15:19:16;10.30;99.90
51908;DHT22;39320;53.214;6.556;2023-02-04T15:21:41;10.20;99.90
51908;DHT22;39320;53.214;6.556;2023-02-04T15:24:08;10.30;99.90
51908;DHT22;39320;53.214;6.556;2023-02-04T15:26:33;10.20;99.90
51908;DHT22;39320;53.214;6.556;2023-02-04T15:28:59;10.30;99.90
51908;DHT22;39320;53.214;6.556;2023-02-04T15:31:26;10.20;99.90
51908;DHT22;39320;53.214;6.556;2023-02-04T15:33:52;10.20;99.90
51908;DHT22;39320;53.214;6.556;2023-02-04T15:36:25;10.10;99.90
51908;DHT22;39320;53.214;6.556;2023-02-04T15:38:50;10.10;99.90
51908;DHT22;39320;53.214;6.556;2023-02-04T15:41:16;10.10;99.90
51908;DHT22;39320;53.214;6.556;2023-02-04T15:43:42;10.10;99.90
51908;DHT22;39320;53.214;6.556;2023-02-04T15:46:08;9.90;99.90
51908;DHT22;39320;53.214;6.556;2023-02-04T15:48:33;9.90;99.90
51908;DHT22;39320;53.214;6.556;2023-02-04T15:50:59;9.90;99.90
51908;DHT22;39320;53.214;6.556;2023-02-04T15:53:25;9.80;99.90
51908;DHT22;39320;53.214;6.556;2023-02-04T15:55:51;9.70;99.90
51908;DHT22;39320;53.214;6.556;2023-02-04T15:58:17;9.70;99.90
51908;DHT22;39320;53.214;6.556;2023-02-04T16:00:42;9.60;99.90
51908;DHT22;39320;53.214;6.556;2023-02-04T16:03:08;9.60;99.90
51908;DHT22;39320;53.214;6.556;2023-02-04T16:05:34;9.50;99.90
51908;DHT22;39320;53.214;6.556;2023-02-04T16:08:01;9.40;99.90
51908;DHT22;39320;53.214;6.556;2023-02-04T16:10:27;9.50;99.90
51908;DHT22;39320;53.214;6.556;2023-02-04T16:12:53;9.30;99.90
51908;DHT22;39320;53.214;6.556;2023-02-04T16:15:22;9.30;99.90
51908;DHT22;39320;53.214;6.556;2023-02-04T16:17:48;9.20;99.90
51908;DHT22;39320;53.214;6.556;2023-02-04T16:20:14;9.20;99.90
51908;DHT22;39320;53.214;6.556;2023-02-04T16:22:40;9.10;99.90
51908;DHT22;39320;53.214;6.556;2023-02-04T16:25:06;9.10;99.90
51908;DHT22;39320;53.214;6.556;2023-02-04T16:27:32;8.90;99.90
51908;DHT22;39320;53.214;6.556;2023-02-04T16:29:58;9.00;99.90
51908;DHT22;39320;53.214;6.556;2023-02-04T16:32:25;8.90;99.90
51908;DHT22;39320;53.214;6.556;2023-02-04T16:34:50;8.90;99.90
51908;DHT22;39320;53.214;6.556;2023-02-04T16:37:18;8.90;99.90
51908;DHT22;39320;53.214;6.556;2023-02-04T16:39:43;8.80;99.90
51908;DHT22;39320;53.214;6.556;2023-02-04T16:42:10;8.80;99.90
51908;DHT22;39320;53.214;6.556;2023-02-04T16:44:37;8.80;99.90
51908;DHT22;39320;53.214;6.556;2023-02-04T16:47:07;8.70;99.90
51908;DHT22;39320;53.214;6.556;2023-02-04T16:49:34;8.70;99.90
51908;DHT22;39320;53.214;6.556;2023-02-04T16:52:00;8.60;99.90
51908;DHT22;39320;53.214;6.556;2023-02-04T16:54:29;8.60;99.90
51908;DHT22;39320;53.214;6.556;2023-02-04T16:56:55;8.60;99.90
51908;DHT22;39320;53.214;6.556;2023-02-04T16:59:21;8.60;99.90
51908;DHT22;39320;53.214;6.556;2023-02-04T17:01:47;8.60;99.90
51908;DHT22;39320;53.214;6.556;2023-02-04T17:04:13;8.50;99.90
51908;DHT22;39320;53.214;6.556;2023-02-04T17:06:39;8.60;99.90
51908;DHT22;39320;53.214;6.556;2023-02-04T17:09:05;8.50;99.90
51908;DHT22;39320;53.214;6.556;2023-02-04T17:11:31;8.40;99.90
51908;DHT22;39320;53.214;6.556;2023-02-04T17:14:08;8.50;99.90
51908;DHT22;39320;53.214;6.556;2023-02-04T17:16:35;8.40;99.90
51908;DHT22;39320;53.214;6.556;2023-02-04T17:19:02;8.40;99.90
51908;DHT22;39320;53.214;6.556;2023-02-04T17:21:29;8.40;99.90
51908;DHT22;39320;53.214;6.556;2023-02-04T17:23:55;8.30;99.90
51908;DHT22;39320;53.214;6.556;2023-02-04T17:26:21;8.30;99.90
51908;DHT22;39320;53.214;6.556;2023-02-04T17:28:47;8.30;99.90
51908;DHT22;39320;53.214;6.556;2023-02-04T17:31:15;8.20;99.90
51908;DHT22;39320;53.214;6.556;2023-02-04T17:33:41;8.20;99.90
51908;DHT22;39320;53.214;6.556;2023-02-04T17:36:07;8.20;99.90
51908;DHT22;39320;53.214;6.556;2023-02-04T17:38:33;8.20;99.90
51908;DHT22;39320;53.214;6.556;2023-02-04T17:40:59;8.20;99.90
51908;DHT22;39320;53.214;6.556;2023-02-04T17:43:25;8.20;99.90
51908;DHT22;39320;53.214;6.556;2023-02-04T17:45:51;8.20;99.90
51908;DHT22;39320;53.214;6.556;2023-02-04T17:48:17;8.20;99.90
51908;DHT22;39320;53.214;6.556;2023-02-04T17:50:43;8.20;99.90
51908;DHT22;39320;53.214;6.556;2023-02-04T17:53:09;8.10;99.90
51908;DHT22;39320;53.214;6.556;2023-02-04T17:55:36;8.20;99.90
51908;DHT22;39320;53.214;6.556;2023-02-04T17:58:26;8.20;99.90
51908;DHT22;39320;53.214;6.556;2023-02-04T18:00:53;8.10;99.90
51908;DHT22;39320;53.214;6.556;2023-02-04T18:03:23;8.10;99.90
51908;DHT22;39320;53.214;6.556;2023-02-04T18:05:52;8.10;99.90
51908;DHT22;39320;53.214;6.556;2023-02-04T18:08:19;8.10;99.90
51908;DHT22;39320;53.214;6.556;2023-02-04T18:10:47;8.00;99.90
51908;DHT22;39320;53.214;6.556;2023-02-04T18:13:21;8.00;99.90
51908;DHT22;39320;53.214;6.556;2023-02-04T18:15:58;8.00;99.90
51908;DHT22;39320;53.214;6.556;2023-02-04T18:18:42;8.00;99.90
51908;DHT22;39320;53.214;6.556;2023-02-04T18:26:49;7.90;99.90
51908;DHT22;39320;53.214;6.556;2023-02-04T18:31:56;7.90;99.90
51908;DHT22;39320;53.214;6.556;2023-02-04T18:34:35;7.80;99.90
51908;DHT22;39320;53.214;6.556;2023-02-04T18:42:26;7.80;99.90
51908;DHT22;39320;53.214;6.556;2023-02-04T18:44:52;7.80;99.90
51908;DHT22;39320;53.214;6.556;2023-02-04T18:47:39;7.80;99.90
51908;DHT22;39320;53.214;6.556;2023-02-04T18:50:27;7.80;99.90
51908;DHT22;39320;53.214;6.556;2023-02-04T18:52:55;7.70;99.90
51908;DHT22;39320;53.214;6.556;2023-02-04T18:55:32;8.10;99.90
51908;DHT22;39320;53.214;6.556;2023-02-04T19:00:58;7.80;99.90
51908;DHT22;39320;53.214;6.556;2023-02-04T19:03:26;7.80;99.90
51908;DHT22;39320;53.214;6.556;2023-02-04T19:05:54;7.70;99.90
51908;DHT22;39320;53.214;6.556;2023-02-04T19:08:21;7.70;99.90
51908;DHT22;39320;53.214;6.556;2023-02-04T19:10:49;7.70;99.90
51908;DHT22;39320;53.214;6.556;2023-02-04T19:13:25;7.70;99.90
51908;DHT22;39320;53.214;6.556;2023-02-04T19:16:21;7.70;99.90
51908;DHT22;39320;53.214;6.556;2023-02-04T19:18:48;7.70;99.90
51908;DHT22;39320;53.214;6.556;2023-02-04T19:24:21;7.90;99.90
51908;DHT22;39320;53.214;6.556;2023-02-04T19:26:56;7.60;99.90
51908;DHT22;39320;53.214;6.556;2023-02-04T19:31:51;7.60;99.90
51908;DHT22;39320;53.214;6.556;2023-02-04T19:34:32;7.60;99.90
51908;DHT22;39320;53.214;6.556;2023-02-04T19:36:58;7.60;99.90
51908;DHT22;39320;53.214;6.556;2023-02-04T19:39:36;7.60;99.90
51908;DHT22;39320;53.214;6.556;2023-02-04T19:44:51;7.60;99.90
51908;DHT22;39320;53.214;6.556;2023-02-04T19:49:49;7.60;99.90
51908;DHT22;39320;53.214;6.556;2023-02-04T19:52:33;7.50;99.90
51908;DHT22;39320;53.214;6.556;2023-02-04T19:57:52;7.60;99.90
51908;DHT22;39320;53.214;6.556;2023-02-04T20:03:20;7.50;99.90
51908;DHT22;39320;53.214;6.556;2023-02-04T20:05:47;7.50;99.90
51908;DHT22;39320;53.214;6.556;2023-02-04T20:08:42;7.50;99.90
51908;DHT22;39320;53.214;6.556;2023-02-04T20:11:28;7.50;99.90
51908;DHT22;39320;53.214;6.556;2023-02-04T20:19:33;7.40;99.90
51908;DHT22;39320;53.214;6.556;2023-02-04T20:24:56;7.40;99.90
51908;DHT22;39320;53.214;6.556;2023-02-04T20:27:38;7.40;99.90
51908;DHT22;39320;53.214;6.556;2023-02-04T20:32:39;7.30;99.90
51908;DHT22;39320;53.214;6.556;2023-02-04T20:38:12;7.30;99.90
51908;DHT22;39320;53.214;6.556;2023-02-04T20:40:41;7.30;99.90
51908;DHT22;39320;53.214;6.556;2023-02-04T20:45:55;7.30;99.90
51908;DHT22;39320;53.214;6.556;2023-02-04T20:48:34;7.30;99.90
51908;DHT22;39320;53.214;6.556;2023-02-04T20:51:02;7.30;99.90
51908;DHT22;39320;53.214;6.556;2023-02-04T20:56:32;7.30;99.90
51908;DHT22;39320;53.214;6.556;2023-02-04T20:59:22;7.30;99.90
51908;DHT22;39320;53.214;6.556;2023-02-04T21:01:51;7.20;99.90
51908;DHT22;39320;53.214;6.556;2023-02-04T21:04:22;7.30;99.90